createdAt,value
2018-04-07T00:03:06.878Z,1.83
2018-04-07T00:08:10.125Z,1.93
2018-04-07T00:13:12.606Z,1.90
2018-04-07T00:18:15.100Z,1.30
2018-04-07T00:23:17.585Z,1.83
2018-04-07T00:28:20.838Z,1.70
2018-04-07T00:33:23.326Z,1.60
2018-04-07T00:38:25.807Z,1.80
2018-04-07T00:43:28.301Z,1.50
2018-04-07T00:48:30.814Z,1.90
2018-04-07T00:53:33.321Z,1.77
2018-04-07T00:58:35.805Z,1.50
2018-04-07T01:03:38.300Z,2.20
2018-04-07T01:08:40.797Z,1.60
2018-04-07T01:13:43.282Z,1.60
2018-04-07T01:18:46.598Z,2.13
2018-04-07T01:23:49.081Z,1.63
2018-04-07T01:28:51.589Z,2.70
2018-04-07T01:33:54.082Z,1.80
2018-04-07T01:38:56.578Z,2.60
2018-04-07T01:43:59.069Z,1.90
2018-04-07T01:49:01.606Z,1.77
2018-04-07T01:54:04.123Z,2.07
2018-04-07T01:59:06.614Z,2.83
2018-04-07T02:04:09.122Z,2.07
2018-04-07T02:09:11.625Z,2.13
2018-04-07T02:14:14.117Z,1.70
2018-04-07T02:19:16.622Z,2.10
2018-04-07T02:24:19.110Z,2.47
2018-04-07T02:29:21.614Z,2.30
2018-04-07T02:34:24.110Z,2.70
2018-04-07T02:39:26.611Z,2.03
2018-04-07T02:44:29.879Z,2.40
2018-04-07T02:49:32.395Z,2.73
2018-04-07T02:54:34.871Z,2.60
2018-04-07T02:59:37.374Z,2.30
2018-04-07T03:04:39.882Z,2.77
2018-04-07T03:09:42.365Z,2.33
2018-04-07T03:14:44.863Z,2.70
2018-04-07T03:19:47.346Z,2.30
2018-04-07T03:24:49.845Z,2.87
2018-04-07T03:29:52.338Z,2.80
2018-04-07T03:34:54.821Z,2.80
2018-04-07T03:39:57.311Z,2.67
2018-04-07T03:44:59.799Z,3.00
2018-04-07T03:50:02.286Z,2.57
2018-04-07T03:55:04.773Z,3.03
2018-04-07T04:00:07.267Z,3.33
2018-04-07T04:05:09.758Z,3.53
2018-04-07T04:10:12.246Z,2.93
2018-04-07T04:15:14.746Z,3.17
2018-04-07T04:20:17.235Z,3.10
2018-04-07T04:25:19.738Z,2.77
2018-04-07T04:30:22.233Z,2.67
2018-04-07T04:35:24.734Z,2.50
2018-04-07T04:40:27.231Z,3.83
2018-04-07T04:45:29.729Z,3.73
2018-04-07T04:50:32.209Z,3.50
2018-04-07T04:55:34.706Z,3.83
2018-04-07T05:00:37.198Z,3.87
2018-04-07T05:05:39.685Z,3.40
2018-04-07T05:10:42.187Z,2.80
2018-04-07T05:15:44.698Z,3.60
2018-04-07T05:20:47.186Z,4.60
2018-04-07T05:25:49.683Z,3.40
2018-04-07T05:30:52.174Z,4.60
2018-04-07T05:35:54.670Z,3.77
2018-04-07T05:40:57.154Z,3.70
2018-04-07T05:45:59.642Z,4.57
2018-04-07T05:51:02.132Z,4.97
2018-04-07T05:56:04.610Z,4.50
2018-04-07T06:01:07.114Z,4.60
2018-04-07T06:06:09.602Z,3.50
2018-04-07T06:11:12.094Z,4.47
2018-04-07T06:16:14.659Z,4.97
2018-04-07T06:21:17.154Z,4.77
2018-04-07T06:26:19.642Z,5.33
2018-04-07T06:31:22.130Z,5.27
2018-04-07T06:36:24.618Z,4.70
2018-04-07T06:41:27.139Z,4.83
2018-04-07T06:46:29.638Z,5.50
2018-04-07T06:51:32.138Z,5.50
2018-04-07T06:56:34.702Z,5.67
2018-04-07T07:01:37.198Z,4.83
2018-04-07T07:06:39.689Z,4.97
2018-04-07T07:11:42.186Z,6.67
2018-04-07T07:16:44.694Z,6.20
2018-04-07T07:21:47.188Z,5.20
2018-04-07T07:26:49.686Z,6.10
2018-04-07T07:31:52.170Z,5.70
2018-04-07T07:36:54.661Z,6.20
2018-04-07T07:41:57.212Z,5.97
2018-04-07T07:46:59.662Z,6.27
2018-04-07T07:52:02.175Z,6.40
2018-04-07T07:57:04.685Z,5.70
2018-04-07T08:02:07.941Z,6.30
2018-04-07T08:07:10.438Z,5.83
2018-04-07T08:12:12.946Z,4.90
2018-04-07T08:17:15.438Z,5.93
2018-04-07T08:22:17.939Z,6.40
2018-04-07T08:27:20.433Z,7.95
2018-04-07T08:32:22.935Z,7.30
2018-04-07T08:37:25.439Z,7.90
2018-04-07T08:42:27.926Z,7.63
2018-04-07T08:47:30.434Z,7.40
2018-04-07T08:52:32.921Z,8.10
2018-04-07T08:57:36.193Z,7.50
2018-04-07T09:02:38.692Z,8.00
2018-04-07T09:07:41.262Z,8.30
2018-04-07T09:12:43.757Z,7.60
2018-04-07T09:17:46.262Z,7.57
2018-04-07T09:22:48.757Z,7.40
2018-04-07T09:27:51.254Z,8.20
2018-04-07T09:32:53.742Z,7.77
2018-04-07T09:37:56.238Z,8.20
2018-04-07T09:42:58.722Z,8.30
2018-04-07T09:48:01.209Z,7.20
2018-04-07T09:53:03.697Z,7.77
2018-04-07T09:58:06.202Z,9.03
2018-04-07T10:03:08.710Z,8.10
2018-04-07T10:08:11.214Z,8.17
2018-04-07T10:13:13.717Z,9.90
2018-04-07T10:18:16.213Z,8.10
2018-04-07T10:23:18.722Z,6.90
2018-04-07T10:28:21.422Z,7.90
2018-04-07T10:33:23.918Z,8.10
2018-04-07T10:38:26.422Z,8.23
2018-04-07T10:43:29.676Z,7.90
2018-04-07T10:48:32.164Z,8.10
2018-04-07T10:53:34.662Z,5.23
2018-04-07T10:58:37.153Z,6.20
2018-04-07T11:03:39.655Z,5.27
2018-04-07T11:08:42.149Z,4.83
2018-04-07T11:13:44.650Z,5.00
2018-04-07T11:18:47.140Z,4.80
2018-04-07T11:23:49.622Z,4.00
2018-04-07T11:28:52.206Z,4.13
2018-04-07T11:33:54.705Z,4.00
2018-04-07T11:38:57.218Z,11.50
2018-04-07T11:43:59.723Z,210.87
2018-04-07T11:49:02.238Z,190.57
2018-04-07T11:54:04.739Z,165.40
2018-04-07T11:59:08.014Z,161.20
2018-04-07T12:04:10.526Z,128.20
2018-04-07T12:09:13.024Z,126.33
2018-04-07T12:14:15.526Z,96.77
2018-04-07T12:19:18.788Z,83.23
2018-04-07T12:24:21.309Z,69.47
2018-04-07T12:29:23.818Z,46.57
2018-04-07T12:34:26.398Z,46.67
2018-04-07T12:39:28.895Z,41.43
2018-04-07T12:44:31.401Z,32.70
2018-04-07T12:49:33.911Z,26.67
2018-04-07T12:54:36.413Z,26.87
2018-04-07T12:59:41.895Z,22.27
2018-04-07T13:04:44.670Z,18.20
2018-04-07T13:09:47.926Z,17.00
2018-04-07T13:14:50.431Z,14.67
2018-04-07T13:19:52.934Z,13.93
2018-04-07T13:24:55.450Z,12.13
2018-04-07T13:29:57.955Z,10.67
2018-04-07T13:35:01.226Z,9.57
2018-04-07T13:40:03.733Z,9.77
2018-04-07T13:45:16.158Z,10.83
2018-04-07T13:50:18.822Z,8.03
2018-04-07T13:55:21.335Z,6.10
2018-04-07T14:00:23.825Z,6.40
2018-04-07T14:05:26.335Z,5.33
2018-04-07T14:10:28.822Z,4.60
2018-04-07T14:15:32.167Z,4.83
2018-04-07T14:20:34.661Z,4.97
2018-04-07T14:25:37.189Z,4.40
2018-04-07T14:30:39.679Z,3.57
2018-04-07T14:35:42.230Z,3.30
2018-04-07T14:40:44.714Z,2.80
2018-04-07T14:45:47.202Z,2.87
2018-04-07T14:50:49.685Z,1.90
2018-04-07T14:55:52.189Z,3.00
2018-04-07T15:00:54.690Z,2.70
2018-04-07T15:05:57.197Z,2.90
2018-04-07T15:10:59.701Z,2.60
2018-04-07T15:16:02.190Z,2.03
2018-04-07T15:21:04.693Z,2.20
2018-04-07T15:26:07.193Z,2.00
2018-04-07T15:31:09.679Z,1.87
2018-04-07T15:36:12.162Z,2.27
2018-04-07T15:41:14.649Z,2.03
2018-04-07T15:46:17.146Z,2.57
2018-04-07T15:51:19.638Z,1.80
2018-04-07T15:56:22.150Z,1.53
2018-04-07T16:01:24.650Z,16.27
2018-04-07T16:06:27.149Z,26.57
2018-04-07T16:11:29.649Z,31.97
2018-04-07T16:16:32.159Z,29.27
2018-04-07T16:21:35.421Z,30.40
2018-04-07T16:26:37.931Z,25.40
2018-04-07T16:31:40.429Z,25.77
2018-04-07T16:36:42.947Z,21.90
2018-04-07T16:41:45.445Z,21.87
2018-04-07T16:46:47.961Z,21.70
2018-04-07T16:51:51.230Z,19.67
2018-04-07T16:56:53.733Z,18.80
2018-04-07T17:01:56.230Z,15.63
2018-04-07T17:06:58.734Z,15.60
2018-04-07T17:12:01.272Z,12.97
2018-04-07T17:17:04.509Z,12.30
2018-04-07T17:22:07.010Z,10.27
2018-04-07T17:27:09.511Z,10.87
2018-04-07T17:32:12.067Z,9.00
2018-04-07T17:37:14.562Z,8.80
2018-04-07T17:42:17.071Z,9.40
2018-04-07T17:47:19.561Z,6.93
2018-04-07T17:52:22.061Z,6.83
2018-04-07T17:57:24.545Z,6.33
2018-04-07T18:02:27.049Z,7.13
2018-04-07T18:07:29.542Z,8.27
2018-04-07T18:12:32.030Z,8.13
2018-04-07T18:17:34.534Z,7.17
2018-04-07T18:22:37.035Z,5.77
2018-04-07T18:27:39.522Z,5.53
2018-04-07T18:32:42.023Z,4.97
2018-04-07T18:37:44.516Z,5.77
2018-04-07T18:42:47.021Z,6.20
2018-04-07T18:47:49.502Z,5.30
2018-04-07T18:52:51.998Z,5.17
2018-04-07T18:57:55.277Z,5.50
2018-04-07T19:02:58.534Z,4.90
2018-04-07T19:08:01.868Z,4.77
2018-04-07T19:13:04.365Z,5.07
2018-04-07T19:18:06.846Z,4.33
2018-04-07T19:23:09.342Z,5.30
2018-04-07T19:28:11.842Z,5.50
2018-04-07T19:33:14.329Z,4.80
2018-04-07T19:38:16.835Z,4.60
2018-04-07T19:43:19.338Z,4.97
2018-04-07T19:48:21.821Z,5.57
2018-04-07T19:53:24.306Z,4.43
2018-04-07T19:58:26.790Z,5.00
2018-04-07T20:03:29.292Z,4.50
2018-04-07T20:08:31.790Z,5.07
2018-04-07T20:13:34.286Z,4.77
2018-04-07T20:18:36.790Z,4.43
2018-04-07T20:23:39.276Z,4.73
2018-04-07T20:28:41.765Z,4.47
2018-04-07T20:33:44.258Z,4.60
2018-04-07T20:38:46.794Z,4.93
2018-04-07T20:43:49.310Z,4.30
2018-04-07T20:48:51.794Z,3.90
2018-04-07T20:53:54.277Z,3.93
2018-04-07T20:58:56.795Z,4.63
2018-04-07T21:03:59.294Z,4.00
2018-04-07T21:09:01.791Z,4.23
2018-04-07T21:14:04.285Z,4.77
2018-04-07T21:19:06.885Z,4.60
2018-04-07T21:24:09.382Z,4.60
2018-04-07T21:29:11.889Z,5.00
2018-04-07T21:34:14.389Z,4.90
2018-04-07T21:39:16.885Z,4.17
2018-04-07T21:44:19.429Z,3.70
2018-04-07T21:49:21.934Z,3.97
2018-04-07T21:54:24.421Z,5.60
2018-04-07T21:59:26.918Z,4.23
2018-04-07T22:04:29.414Z,3.93
2018-04-07T22:09:31.905Z,4.27
2018-04-07T22:14:34.409Z,3.87
2018-04-07T22:19:36.899Z,4.13
2018-04-07T22:24:39.393Z,4.23
2018-04-07T22:29:41.906Z,3.53
2018-04-07T22:34:44.401Z,3.67
2018-04-07T22:39:46.939Z,4.00
2018-04-07T22:44:49.426Z,4.30
2018-04-07T22:49:51.930Z,3.67
2018-04-07T22:54:54.426Z,3.70
2018-04-07T22:59:57.674Z,3.90
2018-04-07T23:05:00.182Z,3.97
2018-04-07T23:10:02.689Z,3.20
2018-04-07T23:15:05.317Z,3.40
2018-04-07T23:20:08.587Z,2.80
2018-04-07T23:25:11.289Z,3.53
2018-04-07T23:30:13.774Z,3.00
2018-04-07T23:35:16.283Z,3.10
2018-04-07T23:40:18.810Z,3.43
2018-04-07T23:45:22.082Z,3.40
2018-04-07T23:50:24.582Z,3.63
2018-04-07T23:55:27.074Z,3.43
